Terminal Aerodrome Forecast
Issued by NWS

Current Version | Previous Version | Text Only | Print | Product List | Glossary Off
Versions: 1 2 3 4 5 6 7 8 9 10 11 12 13 14 15 16 17 18 19 20 21 22

193
FTUS41 KILN 261739
TAFLUK
TAF
KLUK 261739Z 2618/2718 20009KT P6SM VCSH SCT025 BKN035
     FM262100 19011KT 6SM -SHRA BR VCTS SCT025CB OVC035
      TEMPO 2622/2624 VRB10G18KT 2SM -TSRA BR BKN015CB
     FM270000 22006KT P6SM VCSH SCT025 BKN060
     FM270200 22005KT P6SM SCT025 BKN060
     FM271500 18008KT P6SM SCT025 OVC035=

USA.gov is the U.S. government's official web portal to all federal, state and local government web resources and services.